Wetterdaten: Woche 10.04.17 - 16.04.17 (KW15)
Datum Zeit Temp. A. Feuchte A. Luftdruck Regen Wind Richtung Taupunkt Windchill Windben
10.04.2017 00:00 6,8 C 83 % 1021,6 hPa 0,0 l/m 0,0 km/h (0 Bft) O 4,1 C 6,8 C 0,0 km/h (0 Bft)
10.04.2017 01:00 5,8 C 86 % 1021,4 hPa 0,0 l/m 0,0 km/h (0 Bft) O 3,6 C 5,8 C 0,0 km/h (0 Bft)
10.04.2017 02:00 4,9 C 89 % 1021,0 hPa 0,0 l/m 0,0 km/h (0 Bft) O 3,2 C 4,9 C 0,0 km/h (0 Bft)
10.04.2017 03:00 4,2 C 90 % 1020,6 hPa 0,0 l/m 0,0 km/h (0 Bft) O 2,8 C 4,2 C 0,0 km/h (0 Bft)
10.04.2017 04:00 3,5 C 92 % 1020,3 hPa 0,0 l/m 0,0 km/h (0 Bft) O 2,3 C 3,5 C 0,0 km/h (0 Bft)
10.04.2017 05:00 3,0 C 93 % 1019,8 hPa 0,0 l/m 0,0 km/h (0 Bft) O 2,0 C 3,0 C 0,0 km/h (0 Bft)
10.04.2017 06:00 2,9 C 94 % 1019,7 hPa 0,0 l/m 0,0 km/h (0 Bft) O 2,0 C 2,9 C 0,0 km/h (0 Bft)
10.04.2017 07:00 3,2 C 94 % 1019,8 hPa 0,0 l/m 0,1 km/h (0 Bft) O 2,4 C 3,2 C 0,8 km/h (0 Bft)
10.04.2017 08:00 7,5 C 84 % 1019,6 hPa 0,0 l/m 0,4 km/h (0 Bft) O 5,0 C 7,5 C 1,7 km/h (1 Bft)
10.04.2017 09:00 14,6 C 61 % 1019,4 hPa 0,0 l/m 4,3 km/h (1 Bft) O-NO 7,0 C 14,6 C 11,0 km/h (2 Bft)
10.04.2017 10:00 17,4 C 49 % 1019,5 hPa 0,0 l/m 6,8 km/h (2 Bft) O-NO 6,7 C 17,1 C 15,8 km/h (3 Bft)
10.04.2017 11:00 19,1 C 45 % 1019,2 hPa 0,0 l/m 7,0 km/h (2 Bft) O-NO 6,9 C 18,8 C 16,9 km/h (3 Bft)
10.04.2017 12:00 20,5 C 41 % 1018,8 hPa 0,0 l/m 6,0 km/h (2 Bft) NO 6,9 C 20,3 C 13,8 km/h (3 Bft)
10.04.2017 13:00 21,6 C 35 % 1018,3 hPa 0,0 l/m 6,0 km/h (2 Bft) O-NO 5,3 C 21,5 C 15,0 km/h (3 Bft)
10.04.2017 14:00 22,0 C 31 % 1017,9 hPa 0,0 l/m 7,1 km/h (2 Bft) O 4,3 C 21,7 C 17,0 km/h (3 Bft)
10.04.2017 15:00 21,2 C 37 % 1017,4 hPa 0,0 l/m 6,3 km/h (2 Bft) NO 5,7 C 21,0 C 15,4 km/h (3 Bft)
10.04.2017 16:00 21,4 C 33 % 1016,7 hPa 0,0 l/m 4,7 km/h (1 Bft) O 4,5 C 21,4 C 14,0 km/h (3 Bft)
10.04.2017 17:00 20,8 C 35 % 1016,4 hPa 0,0 l/m 4,7 km/h (1 Bft) O-NO 4,7 C 20,8 C 11,7 km/h (2 Bft)
10.04.2017 18:00 19,5 C 47 % 1016,5 hPa 0,0 l/m 5,3 km/h (1 Bft) O 7,7 C 19,4 C 13,4 km/h (3 Bft)
10.04.2017 19:00 16,2 C 60 % 1017,0 hPa 0,0 l/m 4,6 km/h (1 Bft) O-NO 8,3 C 16,2 C 13,8 km/h (3 Bft)
10.04.2017 20:00 13,8 C 63 % 1017,9 hPa 0,0 l/m 2,9 km/h (1 Bft) O 6,8 C 13,8 C 9,7 km/h (2 Bft)
10.04.2017 21:00 12,2 C 67 % 1019,3 hPa 0,0 l/m 1,2 km/h (1 Bft) O-SO 6,3 C 12,2 C 4,8 km/h (1 Bft)
10.04.2017 22:00 11,2 C 70 % 1019,9 hPa 0,0 l/m 2,1 km/h (1 Bft) N-NO 5,8 C 11,2 C 5,5 km/h (2 Bft)
10.04.2017 23:00 10,0 C 71 % 1020,4 hPa 0,0 l/m 2,8 km/h (1 Bft) N-NO 5,0 C 10,0 C 6,7 km/h (2 Bft)
11.04.2017 00:00 9,2 C 72 % 1020,6 hPa 0,0 l/m 1,5 km/h (1 Bft) N-NO 4,5 C 9,2 C 4,0 km/h (1 Bft)
11.04.2017 01:00 8,8 C 68 % 1020,6 hPa 0,0 l/m 1,0 km/h (0 Bft) W-SW 3,2 C 8,8 C 3,7 km/h (1 Bft)
11.04.2017 02:00 8,4 C 69 % 1020,9 hPa 0,0 l/m 0,6 km/h (0 Bft) O-NO 2,9 C 8,4 C 2,8 km/h (1 Bft)
11.04.2017 03:00 8,0 C 70 % 1021,1 hPa 0,0 l/m 1,2 km/h (1 Bft) N-NO 2,9 C 8,0 C 3,9 km/h (1 Bft)
11.04.2017 04:00 7,5 C 69 % 1021,4 hPa 0,0 l/m 2,1 km/h (1 Bft) NW 2,1 C 7,5 C 6,0 km/h (2 Bft)
11.04.2017 05:00 6,7 C 71 % 1021,4 hPa 0,0 l/m 0,9 km/h (0 Bft) SW 1,8 C 6,7 C 2,6 km/h (1 Bft)
11.04.2017 06:00 5,6 C 74 % 1021,5 hPa 0,0 l/m 0,3 km/h (0 Bft) S-SW 1,4 C 5,6 C 1,1 km/h (1 Bft)
11.04.2017 07:00 4,3 C 80 % 1022,0 hPa 0,0 l/m 0,0 km/h (0 Bft) S-SW 1,1 C 4,3 C 0,5 km/h (0 Bft)
11.04.2017 08:00 5,5 C 78 % 1022,7 hPa 0,0 l/m 0,6 km/h (0 Bft) S-SW 1,9 C 5,5 C 2,4 km/h (1 Bft)
11.04.2017 09:00 7,2 C 70 % 1023,1 hPa 0,0 l/m 1,9 km/h (1 Bft) S-SW 2,1 C 7,2 C 4,7 km/h (1 Bft)
11.04.2017 10:00 9,1 C 62 % 1023,4 hPa 0,0 l/m 3,7 km/h (1 Bft) W-NW 2,2 C 9,1 C 9,2 km/h (2 Bft)
11.04.2017 11:00 9,5 C 60 % 1023,8 hPa 0,0 l/m 3,5 km/h (1 Bft) W-NW 2,1 C 9,5 C 8,4 km/h (2 Bft)
11.04.2017 12:00 10,3 C 57 % 1023,8 hPa 0,0 l/m 3,2 km/h (1 Bft) SW 2,1 C 10,3 C 6,9 km/h (2 Bft)
11.04.2017 13:00 12,2 C 50 % 1023,5 hPa 0,0 l/m 3,7 km/h (1 Bft) NO 2,2 C 12,2 C 9,0 km/h (2 Bft)
11.04.2017 14:00 13,1 C 47 % 1023,3 hPa 0,0 l/m 3,1 km/h (1 Bft) S 2,0 C 13,1 C 8,7 km/h (2 Bft)
11.04.2017 15:00 12,9 C 46 % 1023,0 hPa 0,0 l/m 2,9 km/h (1 Bft) O 1,6 C 12,9 C 6,4 km/h (2 Bft)
11.04.2017 16:00 13,4 C 45 % 1022,7 hPa 0,0 l/m 3,2 km/h (1 Bft) NW 1,8 C 13,4 C 8,0 km/h (2 Bft)
11.04.2017 17:00 12,9 C 47 % 1022,6 hPa 0,0 l/m 1,6 km/h (1 Bft) S 1,8 C 12,9 C 4,5 km/h (1 Bft)
11.04.2017 18:00 12,3 C 49 % 1022,7 hPa 0,0 l/m 2,7 km/h (1 Bft) NW 1,9 C 12,3 C 6,2 km/h (2 Bft)
11.04.2017 19:00 10,8 C 54 % 1023,1 hPa 0,0 l/m 2,5 km/h (1 Bft) W-NW 1,8 C 10,8 C 8,4 km/h (2 Bft)
11.04.2017 20:00 8,6 C 59 % 1023,7 hPa 0,0 l/m 0,9 km/h (0 Bft) W-NW 0,9 C 8,6 C 3,7 km/h (1 Bft)
11.04.2017 21:00 5,8 C 70 % 1024,2 hPa 0,0 l/m 0,3 km/h (0 Bft) W-NW 0,8 C 5,8 C 1,1 km/h (0 Bft)
11.04.2017 22:00 3,8 C 78 % 1024,4 hPa 0,0 l/m 0,1 km/h (0 Bft) W-NW 0,3 C 3,8 C 0,7 km/h (0 Bft)
11.04.2017 23:00 2,1 C 82 % 1024,3 hPa 0,0 l/m 0,0 km/h (0 Bft) W-NW -0,7 C 2,1 C 0,5 km/h (0 Bft)
12.04.2017 00:00 1,0 C 84 % 1024,0 hPa 0,0 l/m 0,1 km/h (0 Bft) W-NW -1,3 C 1,0 C 0,4 km/h (0 Bft)
12.04.2017 01:00 0,2 C 86 % 1024,0 hPa 0,0 l/m 0,0 km/h (0 Bft) W-NW -1,8 C 0,2 C 0,1 km/h (0 Bft)
12.04.2017 02:00 -0,7 C 88 % 1023,7 hPa 0,0 l/m 0,0 km/h (0 Bft) W-NW -2,3 C -0,7 C 0,2 km/h (0 Bft)
12.04.2017 03:00 -1,1 C 90 % 1023,3 hPa 0,0 l/m 0,0 km/h (0 Bft) N -2,5 C -1,1 C 0,1 km/h (0 Bft)
12.04.2017 04:00 -1,6 C 91 % 1022,8 hPa 0,0 l/m 0,0 km/h (0 Bft) N -2,9 C -1,6 C 0,1 km/h (0 Bft)
12.04.2017 05:00 -1,7 C 92 % 1022,6 hPa 0,0 l/m 0,0 km/h (0 Bft) N -2,9 C -1,7 C 0,1 km/h (0 Bft)
12.04.2017 06:00 -1,9 C 92 % 1022,3 hPa 0,0 l/m 0,0 km/h (0 Bft) W-NW -3,0 C -1,9 C 0,7 km/h (0 Bft)
12.04.2017 07:00 -1,0 C 92 % 1022,2 hPa 0,0 l/m 0,1 km/h (0 Bft) W-NW -2,1 C -1,0 C 0,8 km/h (0 Bft)
12.04.2017 08:00 0,6 C 89 % 1022,3 hPa 0,0 l/m 0,1 km/h (0 Bft) W-NW -1,0 C 0,6 C 1,1 km/h (0 Bft)
12.04.2017 09:00 6,9 C 69 % 1021,8 hPa 0,0 l/m 2,1 km/h (1 Bft) N-NO 1,6 C 6,9 C 4,8 km/h (1 Bft)
12.04.2017 10:00 10,6 C 53 % 1021,5 hPa 0,0 l/m 4,9 km/h (1 Bft) O-NO 1,3 C 10,6 C 11,4 km/h (2 Bft)
12.04.2017 11:00 12,4 C 47 % 1021,0 hPa 0,0 l/m 5,5 km/h (2 Bft) O-NO 1,4 C 12,3 C 12,0 km/h (2 Bft)
12.04.2017 12:00 14,0 C 41 % 1020,4 hPa 0,0 l/m 5,1 km/h (1 Bft) O 0,9 C 13,8 C 10,7 km/h (2 Bft)
12.04.2017 13:00 15,5 C 36 % 1019,2 hPa 0,0 l/m 7,2 km/h (2 Bft) O 0,7 C 14,9 C 17,3 km/h (3 Bft)
12.04.2017 14:00 16,7 C 34 % 1018,3 hPa 0,0 l/m 7,2 km/h (2 Bft) NO 0,7 C 16,2 C 15,8 km/h (3 Bft)
12.04.2017 15:00 17,6 C 31 % 1017,5 hPa 0,0 l/m 7,0 km/h (2 Bft) O-NO 0,2 C 17,2 C 17,3 km/h (3 Bft)
12.04.2017 16:00 17,7 C 33 % 1016,4 hPa 0,0 l/m 6,5 km/h (2 Bft) O-NO 1,3 C 17,4 C 15,6 km/h (3 Bft)
12.04.2017 17:00 17,0 C 37 % 1015,6 hPa 0,0 l/m 5,8 km/h (2 Bft) O-NO 2,3 C 16,6 C 12,9 km/h (3 Bft)
12.04.2017 18:00 16,8 C 39 % 1015,2 hPa 0,0 l/m 4,5 km/h (1 Bft) O-NO 2,8 C 16,7 C 8,7 km/h (2 Bft)
12.04.2017 19:00 15,5 C 42 % 1014,7 hPa 0,0 l/m 4,4 km/h (1 Bft) O 2,7 C 15,5 C 8,4 km/h (2 Bft)
12.04.2017 20:00 14,1 C 45 % 1014,9 hPa 0,0 l/m 2,1 km/h (1 Bft) O 2,4 C 14,1 C 4,3 km/h (1 Bft)
12.04.2017 21:00 12,4 C 50 % 1015,3 hPa 0,0 l/m 1,9 km/h (1 Bft) O-SO 2,2 C 12,4 C 4,5 km/h (1 Bft)
12.04.2017 22:00 12,7 C 50 % 1015,1 hPa 0,0 l/m 3,4 km/h (1 Bft) O-NO 2,6 C 12,6 C 7,2 km/h (2 Bft)
12.04.2017 23:00 11,6 C 56 % 1015,1 hPa 0,0 l/m 1,5 km/h (1 Bft) O-NO 3,1 C 11,6 C 3,5 km/h (1 Bft)
13.04.2017 00:00 10,4 C 62 % 1015,0 hPa 0,0 l/m 0,8 km/h (0 Bft) O-NO 3,4 C 10,4 C 3,0 km/h (1 Bft)
13.04.2017 01:00 9,9 C 67 % 1014,8 hPa 0,0 l/m 1,5 km/h (1 Bft) O 4,0 C 9,9 C 5,6 km/h (2 Bft)
13.04.2017 02:00 9,4 C 70 % 1014,3 hPa 0,0 l/m 1,5 km/h (1 Bft) O-NO 4,1 C 9,4 C 5,2 km/h (1 Bft)
13.04.2017 03:00 8,6 C 72 % 1013,7 hPa 0,0 l/m 1,0 km/h (0 Bft) O 3,9 C 8,6 C 3,9 km/h (1 Bft)
13.04.2017 04:00 8,1 C 75 % 1013,6 hPa 0,0 l/m 1,4 km/h (1 Bft) O 3,9 C 8,1 C 5,2 km/h (1 Bft)
13.04.2017 05:00 8,8 C 74 % 1013,6 hPa 0,0 l/m 3,5 km/h (1 Bft) O-NO 4,5 C 8,8 C 8,5 km/h (2 Bft)
13.04.2017 06:00 8,6 C 76 % 1013,6 hPa 0,0 l/m 2,2 km/h (1 Bft) O-NO 4,6 C 8,6 C 6,4 km/h (2 Bft)
13.04.2017 07:00 8,5 C 76 % 1014,2 hPa 0,0 l/m 4,1 km/h (1 Bft) NO 4,5 C 8,5 C 11,3 km/h (2 Bft)
13.04.2017 08:00 8,5 C 77 % 1014,9 hPa 0,0 l/m 3,8 km/h (1 Bft) O 4,6 C 8,5 C 10,1 km/h (2 Bft)
13.04.2017 09:00 8,9 C 74 % 1015,2 hPa 0,0 l/m 3,5 km/h (1 Bft) O-NO 4,6 C 8,9 C 9,4 km/h (2 Bft)
13.04.2017 10:00 9,6 C 71 % 1015,4 hPa 0,0 l/m 4,7 km/h (1 Bft) O-NO 4,7 C 9,6 C 11,3 km/h (2 Bft)
13.04.2017 11:00 11,4 C 63 % 1015,4 hPa 0,0 l/m 5,9 km/h (2 Bft) O-NO 4,6 C 11,2 C 14,1 km/h (3 Bft)
13.04.2017 12:00 11,8 C 61 % 1015,4 hPa 0,0 l/m 5,0 km/h (1 Bft) NO 4,4 C 11,8 C 11,3 km/h (2 Bft)
13.04.2017 13:00 12,9 C 54 % 1015,1 hPa 0,0 l/m 4,8 km/h (1 Bft) S 3,9 C 12,9 C 12,9 km/h (3 Bft)
13.04.2017 14:00 13,2 C 55 % 1014,9 hPa 0,0 l/m 4,9 km/h (1 Bft) O 4,5 C 13,2 C 13,3 km/h (3 Bft)
13.04.2017 15:00 14,2 C 53 % 1014,6 hPa 0,0 l/m 6,2 km/h (2 Bft) O 4,8 C 14,1 C 16,0 km/h (3 Bft)
13.04.2017 16:00 14,2 C 54 % 1014,5 hPa 0,0 l/m 5,6 km/h (2 Bft) O-NO 5,0 C 14,1 C 14,9 km/h (3 Bft)
13.04.2017 17:00 14,0 C 55 % 1014,2 hPa 0,0 l/m 4,4 km/h (1 Bft) O 5,2 C 14,0 C 10,1 km/h (2 Bft)
13.04.2017 18:00 13,3 C 57 % 1014,2 hPa 0,0 l/m 3,9 km/h (1 Bft) O-NO 4,8 C 13,3 C 9,6 km/h (2 Bft)
13.04.2017 19:00 11,5 C 64 % 1014,3 hPa 0,0 l/m 1,7 km/h (1 Bft) O 4,8 C 11,5 C 5,1 km/h (1 Bft)
13.04.2017 20:00 9,6 C 70 % 1014,9 hPa 0,0 l/m 0,4 km/h (0 Bft) O 4,5 C 9,6 C 2,5 km/h (1 Bft)
13.04.2017 21:00 7,0 C 79 % 1015,4 hPa 0,0 l/m 0,2 km/h (0 Bft) O-NO 3,6 C 7,0 C 1,6 km/h (1 Bft)
13.04.2017 22:00 5,1 C 85 % 1015,6 hPa 0,0 l/m 0,2 km/h (0 Bft) O-NO 2,8 C 5,1 C 1,5 km/h (1 Bft)
13.04.2017 23:00 4,4 C 87 % 1015,7 hPa 0,0 l/m 0,2 km/h (0 Bft) O-NO 2,3 C 4,4 C 1,5 km/h (1 Bft)
14.04.2017 00:00 4,3 C 88 % 1016,0 hPa 0,0 l/m 0,3 km/h (0 Bft) O-NO 2,5 C 4,3 C 1,0 km/h (0 Bft)
14.04.2017 01:00 5,2 C 87 % 1016,0 hPa 0,0 l/m 0,1 km/h (0 Bft) O-NO 3,2 C 5,2 C 1,2 km/h (1 Bft)
14.04.2017 02:00 5,6 C 87 % 1015,8 hPa 0,0 l/m 0,1 km/h (0 Bft) O-NO 3,5 C 5,6 C 1,5 km/h (1 Bft)
14.04.2017 03:00 5,8 C 86 % 1015,6 hPa 0,0 l/m 0,1 km/h (0 Bft) O-NO 3,7 C 5,8 C 1,5 km/h (1 Bft)
14.04.2017 04:00 6,0 C 85 % 1015,5 hPa 0,0 l/m 0,2 km/h (0 Bft) O-NO 3,7 C 6,0 C 1,2 km/h (1 Bft)
14.04.2017 05:00 5,9 C 85 % 1015,5 hPa 0,0 l/m 0,0 km/h (0 Bft) O-NO 3,5 C 5,9 C 0,4 km/h (0 Bft)
14.04.2017 06:00 5,8 C 84 % 1015,5 hPa 0,0 l/m 0,1 km/h (0 Bft) O-NO 3,4 C 5,8 C 0,3 km/h (0 Bft)
14.04.2017 07:00 5,9 C 85 % 1016,0 hPa 0,0 l/m 0,0 km/h (0 Bft) O-NO 3,6 C 5,9 C 0,4 km/h (0 Bft)
14.04.2017 08:00 6,9 C 80 % 1016,4 hPa 0,0 l/m 1,6 km/h (1 Bft) O-NO 3,8 C 6,9 C 4,0 km/h (1 Bft)
14.04.2017 09:00 8,2 C 70 % 1016,5 hPa 0,0 l/m 3,0 km/h (1 Bft) O-NO 3,1 C 8,2 C 8,2 km/h (2 Bft)
14.04.2017 10:00 9,0 C 64 % 1016,9 hPa 0,0 l/m 3,9 km/h (1 Bft) NO 2,5 C 9,0 C 9,1 km/h (2 Bft)
14.04.2017 11:00 10,0 C 56 % 1016,9 hPa 0,0 l/m 2,6 km/h (1 Bft) O-NO 1,7 C 10,0 C 7,1 km/h (2 Bft)
14.04.2017 12:00 10,2 C 57 % 1016,9 hPa 0,0 l/m 3,1 km/h (1 Bft) O 2,0 C 10,2 C 7,4 km/h (2 Bft)
14.04.2017 13:00 10,3 C 57 % 1016,8 hPa 0,0 l/m 4,4 km/h (1 Bft) O-NO 2,2 C 10,3 C 11,6 km/h (2 Bft)
14.04.2017 14:00 11,4 C 52 % 1016,6 hPa 0,0 l/m 5,8 km/h (2 Bft) NO 2,0 C 11,3 C 16,0 km/h (3 Bft)
14.04.2017 15:00 12,6 C 48 % 1016,2 hPa 0,0 l/m 6,4 km/h (2 Bft) NO 1,8 C 12,2 C 14,5 km/h (3 Bft)
14.04.2017 16:00 11,6 C 50 % 1016,0 hPa 0,0 l/m 5,0 km/h (1 Bft) O-NO 1,5 C 11,4 C 12,5 km/h (2 Bft)
14.04.2017 17:00 11,8 C 51 % 1015,9 hPa 0,0 l/m 3,6 km/h (1 Bft) O-NO 2,0 C 11,8 C 7,9 km/h (2 Bft)
14.04.2017 18:00 11,5 C 53 % 1015,9 hPa 0,0 l/m 3,3 km/h (1 Bft) O-NO 2,2 C 11,5 C 7,3 km/h (2 Bft)
14.04.2017 19:00 10,9 C 57 % 1015,8 hPa 0,0 l/m 1,0 km/h (0 Bft) O 2,7 C 10,9 C 3,1 km/h (1 Bft)
14.04.2017 20:00 9,6 C 66 % 1016,0 hPa 0,0 l/m 0,3 km/h (0 Bft) O 3,4 C 9,6 C 1,7 km/h (1 Bft)
14.04.2017 21:00 8,5 C 73 % 1016,4 hPa 0,0 l/m 0,0 km/h (0 Bft) O 4,0 C 8,5 C 1,1 km/h (0 Bft)
14.04.2017 22:00 7,8 C 77 % 1016,4 hPa 0,0 l/m 0,1 km/h (0 Bft) O 4,0 C 7,8 C 0,5 km/h (0 Bft)
14.04.2017 23:00 7,3 C 77 % 1016,3 hPa 0,0 l/m 0,0 km/h (0 Bft) O 3,6 C 7,3 C 0,5 km/h (0 Bft)
15.04.2017 00:00 6,0 C 80 % 1016,3 hPa 0,0 l/m 0,0 km/h (0 Bft) O 2,8 C 6,0 C 0,2 km/h (0 Bft)
15.04.2017 01:00 4,1 C 86 % 1016,5 hPa 0,0 l/m 0,0 km/h (0 Bft) O 2,0 C 4,1 C 0,1 km/h (0 Bft)
15.04.2017 02:00 3,6 C 89 % 1016,3 hPa 0,0 l/m 0,0 km/h (0 Bft) O 1,9 C 3,6 C 0,0 km/h (0 Bft)
15.04.2017 03:00 3,6 C 90 % 1016,3 hPa 0,0 l/m 0,2 km/h (0 Bft) O 2,0 C 3,6 C 1,2 km/h (1 Bft)
15.04.2017 04:00 4,1 C 87 % 1016,2 hPa 0,0 l/m 0,2 km/h (0 Bft) O 2,2 C 4,1 C 1,5 km/h (1 Bft)
15.04.2017 05:00 4,4 C 88 % 1016,0 hPa 0,0 l/m 0,2 km/h (0 Bft) O 2,5 C 4,4 C 0,7 km/h (0 Bft)
15.04.2017 06:00 3,8 C 88 % 1016,1 hPa 0,0 l/m 0,1 km/h (0 Bft) O 2,1 C 3,8 C 0,5 km/h (0 Bft)
15.04.2017 07:00 3,7 C 91 % 1016,2 hPa 0,0 l/m 0,1 km/h (0 Bft) O 2,4 C 3,7 C 0,7 km/h (0 Bft)
15.04.2017 08:00 7,1 C 83 % 1016,3 hPa 0,0 l/m 2,7 km/h (1 Bft) O-NO 4,5 C 7,1 C 7,0 km/h (2 Bft)
15.04.2017 09:00 10,0 C 71 % 1016,2 hPa 0,0 l/m 5,4 km/h (2 Bft) O-NO 5,0 C 9,8 C 13,0 km/h (3 Bft)
15.04.2017 10:00 10,7 C 68 % 1016,4 hPa 0,0 l/m 4,6 km/h (1 Bft) O-NO 5,1 C 10,7 C 12,6 km/h (3 Bft)
15.04.2017 11:00 11,3 C 66 % 1016,8 hPa 0,0 l/m 4,8 km/h (1 Bft) O 5,2 C 11,3 C 12,7 km/h (3 Bft)
15.04.2017 12:00 11,8 C 64 % 1016,7 hPa 0,0 l/m 4,3 km/h (1 Bft) O-NO 5,2 C 11,8 C 9,4 km/h (2 Bft)
15.04.2017 13:00 11,0 C 69 % 1016,7 hPa 0,0 l/m 5,3 km/h (1 Bft) O 5,5 C 10,8 C 15,0 km/h (3 Bft)
15.04.2017 14:00 12,0 C 65 % 1016,6 hPa 0,0 l/m 6,2 km/h (2 Bft) O 5,6 C 11,7 C 16,4 km/h (3 Bft)
15.04.2017 15:00 12,9 C 60 % 1016,3 hPa 0,0 l/m 7,2 km/h (2 Bft) NO 5,2 C 12,0 C 17,6 km/h (3 Bft)
15.04.2017 16:00 12,1 C 62 % 1016,2 hPa 0,0 l/m 6,8 km/h (2 Bft) O-NO 5,0 C 11,6 C 16,8 km/h (3 Bft)
15.04.2017 17:00 10,4 C 74 % 1016,3 hPa 0,0 l/m 5,6 km/h (2 Bft) O 6,0 C 10,2 C 12,7 km/h (3 Bft)
15.04.2017 18:00 9,1 C 84 % 1016,6 hPa 0,5 l/m 3,3 km/h (1 Bft) O 6,5 C 9,1 C 8,6 km/h (2 Bft)
15.04.2017 19:00 8,1 C 89 % 1017,0 hPa 0,0 l/m 3,1 km/h (1 Bft) O-NO 6,5 C 8,1 C 7,8 km/h (2 Bft)
15.04.2017 20:00 7,7 C 91 % 1017,1 hPa 0,0 l/m 2,8 km/h (1 Bft) N-NO 6,4 C 7,7 C 7,2 km/h (2 Bft)
15.04.2017 21:00 7,8 C 92 % 1017,6 hPa 0,0 l/m 3,0 km/h (1 Bft) NO 6,5 C 7,8 C 7,6 km/h (2 Bft)
15.04.2017 22:00 7,6 C 89 % 1018,1 hPa 1,5 l/m 3,9 km/h (1 Bft) O 5,9 C 7,6 C 10,9 km/h (2 Bft)
15.04.2017 23:00 6,4 C 92 % 1018,5 hPa 0,3 l/m 1,0 km/h (0 Bft) O 5,1 C 6,4 C 3,5 km/h (1 Bft)
16.04.2017 00:00 6,3 C 93 % 1018,6 hPa 0,0 l/m 0,3 km/h (0 Bft) O 5,3 C 6,3 C 1,7 km/h (1 Bft)
16.04.2017 01:00 6,3 C 92 % 1019,0 hPa 0,3 l/m 1,6 km/h (1 Bft) O 5,2 C 6,3 C 5,6 km/h (2 Bft)
16.04.2017 02:00 6,1 C 93 % 1019,1 hPa 0,0 l/m 2,2 km/h (1 Bft) O 5,0 C 6,1 C 5,6 km/h (2 Bft)
16.04.2017 03:00 5,8 C 92 % 1018,9 hPa 0,0 l/m 0,6 km/h (0 Bft) O-SO 4,6 C 5,8 C 3,1 km/h (1 Bft)
16.04.2017 04:00 5,6 C 94 % 1018,6 hPa 0,0 l/m 0,8 km/h (0 Bft) O 4,6 C 5,6 C 3,5 km/h (1 Bft)
16.04.2017 05:00 5,6 C 94 % 1018,6 hPa 0,0 l/m 1,8 km/h (1 Bft) O-NO 4,7 C 5,6 C 4,1 km/h (1 Bft)
16.04.2017 06:00 5,6 C 94 % 1018,7 hPa 0,5 l/m 0,7 km/h (0 Bft) O-NO 4,7 C 5,6 C 2,7 km/h (1 Bft)
16.04.2017 07:00 5,6 C 95 % 1019,1 hPa 0,3 l/m 0,1 km/h (0 Bft) SO 4,8 C 5,6 C 0,9 km/h (0 Bft)
16.04.2017 08:00 5,7 C 95 % 1019,4 hPa 0,0 l/m 0,9 km/h (0 Bft) SO 4,9 C 5,7 C 2,7 km/h (1 Bft)
16.04.2017 09:00 6,1 C 93 % 1019,4 hPa 0,0 l/m 2,4 km/h (1 Bft) O-NO 5,0 C 6,1 C 6,0 km/h (2 Bft)
16.04.2017 10:00 6,3 C 88 % 1019,5 hPa 0,3 l/m 2,6 km/h (1 Bft) O-NO 4,5 C 6,3 C 7,2 km/h (2 Bft)
16.04.2017 11:00 5,2 C 91 % 1020,0 hPa 0,8 l/m 2,3 km/h (1 Bft) O-NO 4,0 C 5,2 C 5,7 km/h (2 Bft)
16.04.2017 12:00 6,3 C 90 % 1019,8 hPa 0,0 l/m 2,7 km/h (1 Bft) O-NO 4,8 C 6,3 C 5,5 km/h (2 Bft)
16.04.2017 13:00 8,1 C 80 % 1019,4 hPa 0,0 l/m 4,2 km/h (1 Bft) NO 4,9 C 8,1 C 10,6 km/h (2 Bft)
16.04.2017 14:00 7,7 C 77 % 1019,3 hPa 0,0 l/m 4,5 km/h (1 Bft) O-NO 3,9 C 7,7 C 12,4 km/h (2 Bft)
16.04.2017 15:00 6,4 C 79 % 1019,5 hPa 0,3 l/m 6,3 km/h (2 Bft) O 3,0 C 6,1 C 15,8 km/h (3 Bft)
16.04.2017 16:00 5,5 C 85 % 1019,9 hPa 0,0 l/m 4,8 km/h (1 Bft) O-NO 3,1 C 5,4 C 12,3 km/h (2 Bft)
16.04.2017 17:00 5,1 C 87 % 1020,0 hPa 0,0 l/m 3,1 km/h (1 Bft) O-NO 3,1 C 5,1 C 7,9 km/h (2 Bft)
16.04.2017 18:00 4,8 C 89 % 1020,3 hPa 0,3 l/m 2,8 km/h (1 Bft) O-NO 3,2 C 4,8 C 5,7 km/h (2 Bft)
16.04.2017 19:00 4,2 C 91 % 1020,5 hPa 0,0 l/m 1,7 km/h (1 Bft) O-NO 2,8 C 4,2 C 4,3 km/h (1 Bft)
16.04.2017 20:00 4,0 C 92 % 1020,9 hPa 0,3 l/m 1,6 km/h (1 Bft) O-NO 2,8 C 4,0 C 4,9 km/h (1 Bft)
16.04.2017 21:00 4,0 C 93 % 1021,4 hPa 0,0 l/m 1,2 km/h (1 Bft) NO 3,0 C 4,0 C 4,0 km/h (1 Bft)
16.04.2017 22:00 4,1 C 94 % 1021,7 hPa 0,0 l/m 2,1 km/h (1 Bft) O-NO 3,1 C 4,1 C 5,3 km/h (1 Bft)
16.04.2017 23:00 4,1 C 94 % 1021,6 hPa 0,0 l/m 2,0 km/h (1 Bft) O-NO 3,2 C 4,1 C 5,1 km/h (1 Bft)
Min-Datum _ 12.04.17 10.04.17 13.04.17 - 16.04.17 - 12.04.17 12.04.17 16.04.17
_ Min-Zeit 06:15 14:05 06:15 - 17:51 - 06:15 06:15 08:15
Minimum _ -2,0 C 29 % 1013,4 hPa - 0,0 km/h (0 Bft) - -3,1 C -2,0 C 0,0 km/h (0 Bft)
Max-Datum _ 10.04.17 16.04.17 11.04.17 15.04.17 10.04.17 - 10.04.17 10.04.17 10.04.17
_ Max-Zeit 14:50 08:10 22:40 22:30 11:56 - 18:40 13:55 12:55
Maximum _ 22,3 C 95 % 1024,5 hPa 1,5 l/m 14,5 km/h
O-NO (3 Bft)
- 9,6 C 22,3 C 32,2 km/h
O-NO (5 Bft)
Durchschnitt _ 8,8 C 71 % 1018,4 hPa #5,1 l/m 2,5 km/h (1 Bft) O 3,3 C 8,8 C 6,5 km/h (2 Bft)